sensor_id;sensor_type;location;lat;lon;timestamp;pressure;altitude;pressure_sealevel;temperature;humidity
54172;BME280;40076;52.354;4.970;2022-12-05T00:02:02;101952.78;;;4.58;100.00
54172;BME280;40076;52.354;4.970;2022-12-05T00:04:27;101950.91;;;4.59;100.00
54172;BME280;40076;52.354;4.970;2022-12-05T00:06:53;101950.91;;;4.59;100.00
54172;BME280;40076;52.354;4.970;2022-12-05T00:09:18;101952.28;;;4.61;100.00
54172;BME280;40076;52.354;4.970;2022-12-05T00:11:44;101951.22;;;4.62;100.00
54172;BME280;40076;52.354;4.970;2022-12-05T00:14:11;101953.09;;;4.62;100.00
54172;BME280;40076;52.354;4.970;2022-12-05T00:16:39;101945.88;;;4.62;100.00
54172;BME280;40076;52.354;4.970;2022-12-05T00:19:06;101944.81;;;4.63;100.00
54172;BME280;40076;52.354;4.970;2022-12-05T00:21:34;101958.22;;;4.63;100.00
54172;BME280;40076;52.354;4.970;2022-12-05T00:24:02;101953.66;;;4.64;100.00
54172;BME280;40076;52.354;4.970;2022-12-05T00:26:29;101950.72;;;4.65;100.00
54172;BME280;40076;52.354;4.970;2022-12-05T00:28:56;101953.38;;;4.65;100.00
54172;BME280;40076;52.354;4.970;2022-12-05T00:31:23;101958.25;;;4.69;100.00
54172;BME280;40076;52.354;4.970;2022-12-05T00:33:50;101953.94;;;4.68;100.00
54172;BME280;40076;52.354;4.970;2022-12-05T00:36:22;101948.03;;;4.65;100.00
54172;BME280;40076;52.354;4.970;2022-12-05T00:38:48;101948.03;;;4.65;100.00
54172;BME280;40076;52.354;4.970;2022-12-05T00:41:20;101959.88;;;4.70;100.00
54172;BME280;40076;52.354;4.970;2022-12-05T00:43:46;101954.53;;;4.70;100.00
54172;BME280;40076;52.354;4.970;2022-12-05T00:46:16;101954.53;;;4.70;100.00
54172;BME280;40076;52.354;4.970;2022-12-05T00:48:42;101955.91;;;4.72;100.00
54172;BME280;40076;52.354;4.970;2022-12-05T00:51:09;101958.25;;;4.69;100.00
54172;BME280;40076;52.354;4.970;2022-12-05T00:53:35;101955.34;;;4.70;100.00
54172;BME280;40076;52.354;4.970;2022-12-05T00:56:03;101956.72;;;4.73;100.00
54172;BME280;40076;52.354;4.970;2022-12-05T00:58:30;101956.44;;;4.74;100.00
54172;BME280;40076;52.354;4.970;2022-12-05T01:00:56;101964.47;;;4.74;100.00
54172;BME280;40076;52.354;4.970;2022-12-05T01:03:22;101961.78;;;4.74;100.00
54172;BME280;40076;52.354;4.970;2022-12-05T01:05:47;101964.22;;;4.76;100.00
54172;BME280;40076;52.354;4.970;2022-12-05T01:08:13;101963.97;;;4.77;100.00
54172;BME280;40076;52.354;4.970;2022-12-05T01:10:38;101957.81;;;4.77;100.00
54172;BME280;40076;52.354;4.970;2022-12-05T01:13:04;101962.91;;;4.78;100.00
54172;BME280;40076;52.354;4.970;2022-12-05T01:15:29;101965.34;;;4.80;100.00
54172;BME280;40076;52.354;4.970;2022-12-05T01:17:55;101961.59;;;4.81;100.00
54172;BME280;40076;52.354;4.970;2022-12-05T01:20:20;101953.53;;;4.81;100.00
54172;BME280;40076;52.354;4.970;2022-12-05T01:22:46;101956.22;;;4.81;100.00
54172;BME280;40076;52.354;4.970;2022-12-05T01:25:11;101954.91;;;4.83;100.00
54172;BME280;40076;52.354;4.970;2022-12-05T01:27:37;101953.31;;;4.82;100.00
54172;BME280;40076;52.354;4.970;2022-12-05T01:30:03;101952.25;;;4.83;100.00
54172;BME280;40076;52.354;4.970;2022-12-05T01:32:29;101954.69;;;4.85;100.00
54172;BME280;40076;52.354;4.970;2022-12-05T01:34:54;101953.38;;;4.87;100.00
54172;BME280;40076;52.354;4.970;2022-12-05T01:37:19;101958.16;;;4.85;100.00
54172;BME280;40076;52.354;4.970;2022-12-05T01:39:47;101961.94;;;4.89;100.00
54172;BME280;40076;52.354;4.970;2022-12-05T01:42:13;101959.53;;;4.88;100.00
54172;BME280;40076;52.354;4.970;2022-12-05T01:47:03;101971.03;;;4.88;100.00
54172;BME280;40076;52.354;4.970;2022-12-05T01:49:32;101970.53;;;4.91;100.00
54172;BME280;40076;52.354;4.970;2022-12-05T01:52:05;101976.13;;;4.90;100.00
54172;BME280;40076;52.354;4.970;2022-12-05T01:54:37;101969.72;;;4.91;100.00
54172;BME280;40076;52.354;4.970;2022-12-05T01:57:07;101975.31;;;4.89;100.00
54172;BME280;40076;52.354;4.970;2022-12-05T01:59:38;101974.03;;;4.92;100.00
54172;BME280;40076;52.354;4.970;2022-12-05T02:02:05;101975.88;;;4.91;100.00
54172;BME280;40076;52.354;4.970;2022-12-05T02:04:37;101964.38;;;4.91;100.00
54172;BME280;40076;52.354;4.970;2022-12-05T02:07:06;101967.84;;;4.91;100.00
54172;BME280;40076;52.354;4.970;2022-12-05T02:09:33;101971.34;;;4.92;100.00
54172;BME280;40076;52.354;4.970;2022-12-05T02:12:03;101967.63;;;4.93;100.00
54172;BME280;40076;52.354;4.970;2022-12-05T02:20:25;101963.31;;;4.92;100.00
54172;BME280;40076;52.354;4.970;2022-12-05T02:28:32;101963.88;;;4.94;100.00
54172;BME280;40076;52.354;4.970;2022-12-05T02:34:01;101968.19;;;4.95;100.00
54172;BME280;40076;52.354;4.970;2022-12-05T02:36:34;101965.22;;;4.96;100.00
54172;BME280;40076;52.354;4.970;2022-12-05T02:39:05;101962.28;;;4.98;100.00
54172;BME280;40076;52.354;4.970;2022-12-05T02:41:40;101966.34;;;5.00;100.00
54172;BME280;40076;52.354;4.970;2022-12-05T02:44:22;101965.53;;;5.00;100.00
54172;BME280;40076;52.354;4.970;2022-12-05T02:46:51;101961.53;;;5.02;100.00
54172;BME280;40076;52.354;4.970;2022-12-05T02:49:22;101955.09;;;5.03;100.00
54172;BME280;40076;52.354;4.970;2022-12-05T02:51:52;101963.13;;;5.03;100.00
54172;BME280;40076;52.354;4.970;2022-12-05T02:54:25;101961.03;;;5.05;100.00
54172;BME280;40076;52.354;4.970;2022-12-05T02:56:52;101962.34;;;5.03;100.00
54172;BME280;40076;52.354;4.970;2022-12-05T02:59:19;101962.88;;;5.05;100.00
54172;BME280;40076;52.354;4.970;2022-12-05T03:01:45;101968.81;;;5.07;100.00
54172;BME280;40076;52.354;4.970;2022-12-05T03:04:15;101968.81;;;5.07;100.00
54172;BME280;40076;52.354;4.970;2022-12-05T03:06:51;101962.16;;;5.10;100.00
54172;BME280;40076;52.354;4.970;2022-12-05T03:09:34;101964.00;;;5.09;100.00
54172;BME280;40076;52.354;4.970;2022-12-05T03:12:12;101976.06;;;5.12;100.00
54172;BME280;40076;52.354;4.970;2022-12-05T03:14:43;101958.13;;;5.12;100.00
54172;BME280;40076;52.354;4.970;2022-12-05T03:17:15;101968.84;;;5.12;100.00
54172;BME280;40076;52.354;4.970;2022-12-05T03:19:56;101964.53;;;5.11;100.00
54172;BME280;40076;52.354;4.970;2022-12-05T03:22:32;101962.19;;;5.15;100.00
54172;BME280;40076;52.354;4.970;2022-12-05T03:25:00;101973.47;;;5.17;100.00
54172;BME280;40076;52.354;4.970;2022-12-05T03:27:48;101969.41;;;5.14;100.00
54172;BME280;40076;52.354;4.970;2022-12-05T03:30:17;101975.56;;;5.15;100.00
54172;BME280;40076;52.354;4.970;2022-12-05T03:38:30;101985.47;;;5.14;100.00
54172;BME280;40076;52.354;4.970;2022-12-05T03:46:34;101978.81;;;5.17;100.00
54172;BME280;40076;52.354;4.970;2022-12-05T03:49:44;101979.63;;;5.17;100.00
54172;BME280;40076;52.354;4.970;2022-12-05T03:52:11;101992.22;;;5.17;100.00
54172;BME280;40076;52.354;4.970;2022-12-05T03:54:41;101990.88;;;5.19;100.00
54172;BME280;40076;52.354;4.970;2022-12-05T03:57:20;101986.03;;;5.16;100.00
54172;BME280;40076;52.354;4.970;2022-12-05T03:59:53;101986.63;;;5.18;100.00
54172;BME280;40076;52.354;4.970;2022-12-05T04:02:37;101990.63;;;5.21;100.00
54172;BME280;40076;52.354;4.970;2022-12-05T04:07:42;101993.06;;;5.22;100.00
54172;BME280;40076;52.354;4.970;2022-12-05T04:10:21;102000.50;;;5.15;100.00
54172;BME280;40076;52.354;4.970;2022-12-05T04:12:51;101991.97;;;5.18;100.00
54172;BME280;40076;52.354;4.970;2022-12-05T04:15:23;102000.25;;;5.17;100.00
54172;BME280;40076;52.354;4.970;2022-12-05T04:17:57;102001.59;;;5.19;100.00
54172;BME280;40076;52.354;4.970;2022-12-05T04:20:30;101999.22;;;5.23;100.00
54172;BME280;40076;52.354;4.970;2022-12-05T04:23:15;101999.22;;;5.23;100.00
54172;BME280;40076;52.354;4.970;2022-12-05T04:25:53;101999.22;;;5.23;100.00
54172;BME280;40076;52.354;4.970;2022-12-05T04:28:30;101990.69;;;5.26;100.00
54172;BME280;40076;52.354;4.970;2022-12-05T04:31:04;101990.94;;;5.24;100.00
54172;BME280;40076;52.354;4.970;2022-12-05T04:33:43;101989.59;;;5.27;100.00
54172;BME280;40076;52.354;4.970;2022-12-05T04:38:51;101995.25;;;5.25;100.00
54172;BME280;40076;52.354;4.970;2022-12-05T04:41:36;101987.50;;;5.29;100.00
54172;BME280;40076;52.354;4.970;2022-12-05T04:44:06;101981.88;;;5.30;100.00
54172;BME280;40076;52.354;4.970;2022-12-05T04:46:34;101980.25;;;5.29;100.00
54172;BME280;40076;52.354;4.970;2022-12-05T04:49:01;101985.13;;;5.32;100.00
54172;BME280;40076;52.354;4.970;2022-12-05T04:51:32;101981.38;;;5.33;100.00
54172;BME280;40076;52.354;4.970;2022-12-05T04:54:09;101973.59;;;5.32;100.00
54172;BME280;40076;52.354;4.970;2022-12-05T04:56:40;101981.38;;;5.33;100.00
54172;BME280;40076;52.354;4.970;2022-12-05T04:59:07;101975.50;;;5.36;100.00
54172;BME280;40076;52.354;4.970;2022-12-05T05:01:37;101977.63;;;5.34;100.00
54172;BME280;40076;52.354;4.970;2022-12-05T05:04:21;101971.47;;;5.34;100.00
54172;BME280;40076;52.354;4.970;2022-12-05T05:06:47;101976.84;;;5.34;100.00
54172;BME280;40076;52.354;4.970;2022-12-05T05:09:13;101974.94;;;5.34;100.00
54172;BME280;40076;52.354;4.970;2022-12-05T05:11:38;101980.03;;;5.36;100.00
54172;BME280;40076;52.354;4.970;2022-12-05T05:14:04;101975.75;;;5.35;100.00
54172;BME280;40076;52.354;4.970;2022-12-05T05:16:34;101978.41;;;5.35;100.00
54172;BME280;40076;52.354;4.970;2022-12-05T05:18:59;101988.09;;;5.36;100.00
54172;BME280;40076;52.354;4.970;2022-12-05T05:21:28;101989.69;;;5.37;100.00
54172;BME280;40076;52.354;4.970;2022-12-05T05:23:54;101991.31;;;5.38;100.00
54172;BME280;40076;52.354;4.970;2022-12-05T05:26:20;101986.78;;;5.38;100.00
54172;BME280;40076;52.354;4.970;2022-12-05T05:28:46;101991.56;;;5.36;100.00
54172;BME280;40076;52.354;4.970;2022-12-05T05:31:12;101990.25;;;5.39;100.00
54172;BME280;40076;52.354;4.970;2022-12-05T05:33:38;101985.97;;;5.38;100.00
54172;BME280;40076;52.354;4.970;2022-12-05T05:36:09;101997.75;;;5.37;100.00
54172;BME280;40076;52.354;4.970;2022-12-05T05:38:38;101994.00;;;5.38;100.00
54172;BME280;40076;52.354;4.970;2022-12-05T05:41:04;102000.44;;;5.37;100.00
54172;BME280;40076;52.354;4.970;2022-12-05T05:43:30;101992.13;;;5.38;100.00
54172;BME280;40076;52.354;4.970;2022-12-05T05:45:56;102004.22;;;5.41;100.00
54172;BME280;40076;52.354;4.970;2022-12-05T05:48:22;102003.13;;;5.42;100.00
54172;BME280;40076;52.354;4.970;2022-12-05T05:50:47;102005.81;;;5.42;100.00
54172;BME280;40076;52.354;4.970;2022-12-05T05:53:13;102000.47;;;5.42;100.00
54172;BME280;40076;52.354;4.970;2022-12-05T05:55:39;101997.78;;;5.42;100.00
54172;BME280;40076;52.354;4.970;2022-12-05T05:58:05;101999.41;;;5.43;100.00
54172;BME280;40076;52.354;4.970;2022-12-05T06:00:30;102002.88;;;5.43;100.00
54172;BME280;40076;52.354;4.970;2022-12-05T06:02:56;101997.53;;;5.43;100.00
54172;BME280;40076;52.354;4.970;2022-12-05T06:05:21;101997.28;;;5.45;100.00
54172;BME280;40076;52.354;4.970;2022-12-05T06:07:51;102007.19;;;5.44;100.00
54172;BME280;40076;52.354;4.970;2022-12-05T06:10:19;102002.63;;;5.45;100.00
54172;BME280;40076;52.354;4.970;2022-12-05T06:12:48;102004.00;;;5.48;100.00
54172;BME280;40076;52.354;4.970;2022-12-05T06:15:13;102002.13;;;5.48;100.00
54172;BME280;40076;52.354;4.970;2022-12-05T06:17:39;102003.19;;;5.47;100.00
54172;BME280;40076;52.354;4.970;2022-12-05T06:20:05;102010.44;;;5.47;100.00
54172;BME280;40076;52.354;4.970;2022-12-05T06:22:34;102013.91;;;5.47;100.00
54172;BME280;40076;52.354;4.970;2022-12-05T06:24:59;102015.25;;;5.50;100.00
54172;BME280;40076;52.354;4.970;2022-12-05T06:27:28;102007.75;;;5.47;100.00
54172;BME280;40076;52.354;4.970;2022-12-05T06:29:56;102016.06;;;5.50;100.00
54172;BME280;40076;52.354;4.970;2022-12-05T06:32:22;102013.66;;;5.49;100.00
54172;BME280;40076;52.354;4.970;2022-12-05T06:34:47;102015.81;;;5.52;100.00
54172;BME280;40076;52.354;4.970;2022-12-05T06:37:15;102017.69;;;5.51;100.00
54172;BME280;40076;52.354;4.970;2022-12-05T06:39:41;102025.75;;;5.51;100.00
54172;BME280;40076;52.354;4.970;2022-12-05T06:42:09;102016.63;;;5.52;100.00
54172;BME280;40076;52.354;4.970;2022-12-05T06:44:37;102023.88;;;5.52;100.00
54172;BME280;40076;52.354;4.970;2022-12-05T06:47:03;102026.78;;;5.50;100.00
54172;BME280;40076;52.354;4.970;2022-12-05T06:49:35;102029.47;;;5.50;100.00
54172;BME280;40076;52.354;4.970;2022-12-05T06:52:00;102028.66;;;5.50;100.00
54172;BME280;40076;52.354;4.970;2022-12-05T06:54:26;102031.91;;;5.52;100.00
54172;BME280;40076;52.354;4.970;2022-12-05T06:56:52;102030.84;;;5.53;100.00
54172;BME280;40076;52.354;4.970;2022-12-05T06:59:19;102027.34;;;5.52;100.00
54172;BME280;40076;52.354;4.970;2022-12-05T07:01:45;102026.28;;;5.53;100.00
54172;BME280;40076;52.354;4.970;2022-12-05T07:04:15;102032.47;;;5.54;100.00
54172;BME280;40076;52.354;4.970;2022-12-05T07:06:43;102027.91;;;5.54;100.00
54172;BME280;40076;52.354;4.970;2022-12-05T07:09:24;102034.91;;;5.55;100.00
54172;BME280;40076;52.354;4.970;2022-12-05T07:12:08;102034.09;;;5.55;100.00
54172;BME280;40076;52.354;4.970;2022-12-05T07:14:46;102044.28;;;5.58;100.00
54172;BME280;40076;52.354;4.970;2022-12-05T07:17:19;102042.41;;;5.58;100.00
54172;BME280;40076;52.354;4.970;2022-12-05T07:19:48;102049.16;;;5.61;100.00
54172;BME280;40076;52.354;4.970;2022-12-05T07:22:14;102044.59;;;5.61;100.00
54172;BME280;40076;52.354;4.970;2022-12-05T07:24:39;102049.97;;;5.61;100.00
54172;BME280;40076;52.354;4.970;2022-12-05T07:27:05;102044.59;;;5.61;100.00
54172;BME280;40076;52.354;4.970;2022-12-05T07:29:30;102054.00;;;5.64;100.00
54172;BME280;40076;52.354;4.970;2022-12-05T07:31:56;102044.88;;;5.65;100.00
54172;BME280;40076;52.354;4.970;2022-12-05T07:34:21;102057.22;;;5.66;100.00
54172;BME280;40076;52.354;4.970;2022-12-05T07:36:46;102057.78;;;5.68;100.00
54172;BME280;40076;52.354;4.970;2022-12-05T07:39:12;102056.16;;;5.67;100.00
54172;BME280;40076;52.354;4.970;2022-12-05T07:41:37;102050.00;;;5.66;100.00
54172;BME280;40076;52.354;4.970;2022-12-05T07:44:03;102055.66;;;5.70;100.00
54172;BME280;40076;52.354;4.970;2022-12-05T07:46:28;102052.75;;;5.71;100.00
54172;BME280;40076;52.354;4.970;2022-12-05T07:48:54;102053.53;;;5.72;100.00
54172;BME280;40076;52.354;4.970;2022-12-05T07:51:20;102063.19;;;5.73;100.00
54172;BME280;40076;52.354;4.970;2022-12-05T07:53:46;102061.06;;;5.75;100.00
54172;BME280;40076;52.354;4.970;2022-12-05T07:56:13;102067.22;;;5.75;100.00
54172;BME280;40076;52.354;4.970;2022-12-05T07:58:41;102064.00;;;5.73;100.00
54172;BME280;40076;52.354;4.970;2022-12-05T08:01:11;102068.28;;;5.74;100.00
54172;BME280;40076;52.354;4.970;2022-12-05T08:03:37;102070.47;;;5.77;100.00
54172;BME280;40076;52.354;4.970;2022-12-05T08:06:09;102061.38;;;5.78;100.00
54172;BME280;40076;52.354;4.970;2022-12-05T08:08:35;102068.34;;;5.79;100.00
54172;BME280;40076;52.354;4.970;2022-12-05T08:11:21;102065.91;;;5.78;100.00
54172;BME280;40076;52.354;4.970;2022-12-05T08:13:47;102074.25;;;5.81;100.00
54172;BME280;40076;52.354;4.970;2022-12-05T08:16:15;102075.88;;;5.82;100.00
54172;BME280;40076;52.354;4.970;2022-12-05T08:18:42;102075.63;;;5.84;100.00
54172;BME280;40076;52.354;4.970;2022-12-05T08:21:13;102084.47;;;5.85;100.00
54172;BME280;40076;52.354;4.970;2022-12-05T08:23:39;102077.00;;;5.87;100.00
54172;BME280;40076;52.354;4.970;2022-12-05T08:26:07;102074.06;;;5.88;100.00
54172;BME280;40076;52.354;4.970;2022-12-05T08:28:33;102081.84;;;5.90;100.00
54172;BME280;40076;52.354;4.970;2022-12-05T08:31:14;102086.41;;;5.89;100.00
54172;BME280;40076;52.354;4.970;2022-12-05T08:33:40;102088.03;;;5.90;100.00
54172;BME280;40076;52.354;4.970;2022-12-05T08:36:08;102091.53;;;5.91;100.00
54172;BME280;40076;52.354;4.970;2022-12-05T08:38:37;102089.91;;;5.90;100.00
54172;BME280;40076;52.354;4.970;2022-12-05T08:41:04;102086.16;;;5.91;100.00
54172;BME280;40076;52.354;4.970;2022-12-05T08:43:30;102096.63;;;5.92;100.00
54172;BME280;40076;52.354;4.970;2022-12-05T08:45:57;102089.91;;;5.90;100.00
54172;BME280;40076;52.354;4.970;2022-12-05T08:48:22;102087.78;;;5.92;100.00
54172;BME280;40076;52.354;4.970;2022-12-05T08:50:48;102095.56;;;5.93;100.00
54172;BME280;40076;52.354;4.970;2022-12-05T08:53:14;102095.56;;;5.93;100.00
54172;BME280;40076;52.354;4.970;2022-12-05T08:55:40;102101.75;;;5.94;100.00
54172;BME280;40076;52.354;4.970;2022-12-05T08:58:05;102099.06;;;5.94;100.00
54172;BME280;40076;52.354;4.970;2022-12-05T09:00:31;102100.94;;;5.93;100.00
54172;BME280;40076;52.354;4.970;2022-12-05T09:02:57;102091.84;;;5.94;100.00
54172;BME280;40076;52.354;4.970;2022-12-05T09:05:23;102094.25;;;5.96;100.00
54172;BME280;40076;52.354;4.970;2022-12-05T09:07:49;102098.78;;;5.95;100.00
54172;BME280;40076;52.354;4.970;2022-12-05T09:10:14;102102.28;;;5.96;100.00
54172;BME280;40076;52.354;4.970;2022-12-05T09:12:40;102102.03;;;5.97;100.00
54172;BME280;40076;52.354;4.970;2022-12-05T09:15:06;102099.91;;;5.99;100.00
54172;BME280;40076;52.354;4.970;2022-12-05T09:17:33;102106.09;;;6.00;100.00
54172;BME280;40076;52.354;4.970;2022-12-05T09:19:58;102105.28;;;5.99;100.00
54172;BME280;40076;52.354;4.970;2022-12-05T09:22:24;102103.41;;;6.00;100.00
54172;BME280;40076;52.354;4.970;2022-12-05T09:24:49;102107.72;;;6.01;100.00
54172;BME280;40076;52.354;4.970;2022-12-05T09:27:15;102120.06;;;6.02;100.00
54172;BME280;40076;52.354;4.970;2022-12-05T09:29:40;102118.44;;;6.01;100.00
54172;BME280;40076;52.354;4.970;2022-12-05T09:32:07;102117.63;;;6.00;100.00
54172;BME280;40076;52.354;4.970;2022-12-05T09:34:32;102123.56;;;6.02;100.00
54172;BME280;40076;52.354;4.970;2022-12-05T09:36:59;102131.59;;;6.02;100.00
54172;BME280;40076;52.354;4.970;2022-12-05T09:39:26;102127.03;;;6.03;100.00
54172;BME280;40076;52.354;4.970;2022-12-05T09:42:23;102129.16;;;6.01;100.00
54172;BME280;40076;52.354;4.970;2022-12-05T09:49:56;102139.66;;;6.02;100.00
54172;BME280;40076;52.354;4.970;2022-12-05T09:52:32;102138.56;;;6.03;100.00
54172;BME280;40076;52.354;4.970;2022-12-05T09:55:11;102137.75;;;6.03;100.00
54172;BME280;40076;52.354;4.970;2022-12-05T09:57:42;102133.19;;;6.03;100.00
54172;BME280;40076;52.354;4.970;2022-12-05T10:00:10;102140.19;;;6.04;100.00
54172;BME280;40076;52.354;4.970;2022-12-05T10:02:44;102135.38;;;6.06;100.00
54172;BME280;40076;52.354;4.970;2022-12-05T10:05:20;102135.63;;;6.05;100.00
54172;BME280;40076;52.354;4.970;2022-12-05T10:11:38;102132.19;;;6.09;100.00
54172;BME280;40076;52.354;4.970;2022-12-05T10:14:19;102137.81;;;6.08;100.00
54172;BME280;40076;52.354;4.970;2022-12-05T10:16:54;102135.94;;;6.08;100.00
54172;BME280;40076;52.354;4.970;2022-12-05T10:19:31;102136.75;;;6.09;100.00
54172;BME280;40076;52.354;4.970;2022-12-05T10:22:02;102131.63;;;6.07;100.00
54172;BME280;40076;52.354;4.970;2022-12-05T10:24:32;102130.81;;;6.07;100.00
54172;BME280;40076;52.354;4.970;2022-12-05T10:27:06;102131.38;;;6.09;100.00
54172;BME280;40076;52.354;4.970;2022-12-05T10:29:37;102131.38;;;6.09;100.00
54172;BME280;40076;52.354;4.970;2022-12-05T10:32:51;102127.34;;;6.11;100.00
54172;BME280;40076;52.354;4.970;2022-12-05T10:37:52;102119.31;;;6.11;100.00
54172;BME280;40076;52.354;4.970;2022-12-05T10:40:19;102120.13;;;6.12;100.00
54172;BME280;40076;52.354;4.970;2022-12-05T10:42:46;102123.06;;;6.10;100.00
54172;BME280;40076;52.354;4.970;2022-12-05T10:45:23;102121.75;;;6.13;100.00
54172;BME280;40076;52.354;4.970;2022-12-05T10:47:52;102123.66;;;6.17;100.00
54172;BME280;40076;52.354;4.970;2022-12-05T10:52:47;102122.56;;;6.18;100.00
54172;BME280;40076;52.354;4.970;2022-12-05T10:55:14;102118.84;;;6.19;100.00
54172;BME280;40076;52.354;4.970;2022-12-05T10:57:40;102119.66;;;6.20;100.00
54172;BME280;40076;52.354;4.970;2022-12-05T11:00:14;102123.94;;;6.21;100.00
54172;BME280;40076;52.354;4.970;2022-12-05T11:02:40;102123.69;;;6.23;100.00
54172;BME280;40076;52.354;4.970;2022-12-05T11:05:06;102123.44;;;6.24;100.00
54172;BME280;40076;52.354;4.970;2022-12-05T11:10:41;102126.66;;;6.26;100.00
54172;BME280;40076;52.354;4.970;2022-12-05T11:13:24;102125.34;;;6.29;100.00
54172;BME280;40076;52.354;4.970;2022-12-05T11:15:49;102121.03;;;6.28;100.00
54172;BME280;40076;52.354;4.970;2022-12-05T11:20:51;102123.72;;;6.28;100.00
54172;BME280;40076;52.354;4.970;2022-12-05T11:23:22;102119.16;;;6.28;100.00
54172;BME280;40076;52.354;4.970;2022-12-05T11:25:48;102125.34;;;6.29;100.00
54172;BME280;40076;52.354;4.970;2022-12-05T11:31:03;102122.41;;;6.30;100.00
54172;BME280;40076;52.354;4.970;2022-12-05T11:33:32;102122.16;;;6.32;100.00
54172;BME280;40076;52.354;4.970;2022-12-05T11:36:10;102122.16;;;6.32;100.00
54172;BME280;40076;52.354;4.970;2022-12-05T11:38:38;102125.38;;;6.34;100.00
54172;BME280;40076;52.354;4.970;2022-12-05T11:41:24;102129.66;;;6.30;100.00
54172;BME280;40076;52.354;4.970;2022-12-05T11:50:02;102124.56;;;6.33;100.00
54172;BME280;40076;52.354;4.970;2022-12-05T12:07:04;102111.44;;;6.37;100.00
54172;BME280;40076;52.354;4.970;2022-12-05T12:17:33;102103.16;;;6.43;100.00
54172;BME280;40076;52.354;4.970;2022-12-05T12:22:53;102111.22;;;6.43;100.00
54172;BME280;40076;52.354;4.970;2022-12-05T12:25:43;102109.34;;;6.44;100.00
54172;BME280;40076;52.354;4.970;2022-12-05T12:28:38;102103.97;;;6.44;100.00
54172;BME280;40076;52.354;4.970;2022-12-05T12:37:12;102105.31;;;6.46;100.00
54172;BME280;40076;52.354;4.970;2022-12-05T12:39:50;102110.94;;;6.45;100.00
54172;BME280;40076;52.354;4.970;2022-12-05T12:42:26;102104.78;;;6.44;100.00
54172;BME280;40076;52.354;4.970;2022-12-05T12:45:30;102101.28;;;6.44;100.00
54172;BME280;40076;52.354;4.970;2022-12-05T12:48:42;102099.97;;;6.46;100.00
54172;BME280;40076;52.354;4.970;2022-12-05T12:51:12;102098.09;;;6.47;100.00
54172;BME280;40076;52.354;4.970;2022-12-05T12:54:14;102096.22;;;6.47;100.00
54172;BME280;40076;52.354;4.970;2022-12-05T12:59:31;102088.41;;;6.46;100.00
54172;BME280;40076;52.354;4.970;2022-12-05T13:02:21;102089.22;;;6.46;100.00
54172;BME280;40076;52.354;4.970;2022-12-05T13:04:55;102087.88;;;6.49;100.00
54172;BME280;40076;52.354;4.970;2022-12-05T13:07:29;102082.78;;;6.47;100.00
54172;BME280;40076;52.354;4.970;2022-12-05T13:10:04;102081.72;;;6.48;100.00
54172;BME280;40076;52.354;4.970;2022-12-05T13:12:34;102085.75;;;6.51;100.00
54172;BME280;40076;52.354;4.970;2022-12-05T13:15:35;102079.31;;;6.52;100.00
54172;BME280;40076;52.354;4.970;2022-12-05T13:18:06;102085.75;;;6.51;100.00
54172;BME280;40076;52.354;4.970;2022-12-05T13:20:37;102089.22;;;6.51;100.00
54172;BME280;40076;52.354;4.970;2022-12-05T13:23:04;102089.22;;;6.51;100.00
54172;BME280;40076;52.354;4.970;2022-12-05T13:25:33;102091.09;;;6.51;100.00
54172;BME280;40076;52.354;4.970;2022-12-05T13:28:04;102096.47;;;6.51;100.00
54172;BME280;40076;52.354;4.970;2022-12-05T13:30:30;102091.38;;;6.49;100.00
54172;BME280;40076;52.354;4.970;2022-12-05T13:33:05;102092.19;;;6.50;100.00
54172;BME280;40076;52.354;4.970;2022-12-05T13:35:38;102087.88;;;6.49;100.00
54172;BME280;40076;52.354;4.970;2022-12-05T13:38:27;102088.69;;;6.49;100.00
54172;BME280;40076;52.354;4.970;2022-12-05T13:41:12;102097.53;;;6.50;100.00
54172;BME280;40076;52.354;4.970;2022-12-05T13:43:57;102092.47;;;6.48;100.00
54172;BME280;40076;52.354;4.970;2022-12-05T13:46:28;102094.59;;;6.46;100.00
54172;BME280;40076;52.354;4.970;2022-12-05T13:49:02;102091.09;;;6.46;100.00
54172;BME280;40076;52.354;4.970;2022-12-05T13:51:32;102096.22;;;6.47;100.00
54172;BME280;40076;52.354;4.970;2022-12-05T13:54:05;102096.22;;;6.47;100.00
54172;BME280;40076;52.354;4.970;2022-12-05T14:07:48;102091.91;;;6.51;100.00
54172;BME280;40076;52.354;4.970;2022-12-05T14:15:28;102097.31;;;6.56;100.00
54172;BME280;40076;52.354;4.970;2022-12-05T14:18:04;102095.44;;;6.57;100.00
54172;BME280;40076;52.354;4.970;2022-12-05T14:21:05;102098.13;;;6.57;100.00
54172;BME280;40076;52.354;4.970;2022-12-05T14:29:27;102102.69;;;6.56;100.00
54172;BME280;40076;52.354;4.970;2022-12-05T14:32:16;102093.84;;;6.56;100.00
54172;BME280;40076;52.354;4.970;2022-12-05T14:34:57;102098.41;;;6.55;100.00
54172;BME280;40076;52.354;4.970;2022-12-05T14:37:27;102097.59;;;6.55;100.00
54172;BME280;40076;52.354;4.970;2022-12-05T14:39:55;102098.66;;;6.54;100.00
54172;BME280;40076;52.354;4.970;2022-12-05T14:42:25;102098.66;;;6.54;100.00
54172;BME280;40076;52.354;4.970;2022-12-05T14:44:55;102105.09;;;6.53;100.00
54172;BME280;40076;52.354;4.970;2022-12-05T14:47:25;102101.59;;;6.52;100.00
54172;BME280;40076;52.354;4.970;2022-12-05T14:49:56;102106.97;;;6.52;100.00
54172;BME280;40076;52.354;4.970;2022-12-05T14:52:30;102105.09;;;6.53;100.00
54172;BME280;40076;52.354;4.970;2022-12-05T14:55:02;102106.72;;;6.54;100.00
54172;BME280;40076;52.354;4.970;2022-12-05T14:57:31;102111.03;;;6.55;100.00
54172;BME280;40076;52.354;4.970;2022-12-05T15:00:03;102110.72;;;6.56;100.00
54172;BME280;40076;52.354;4.970;2022-12-05T15:02:33;102114.22;;;6.57;100.00
54172;BME280;40076;52.354;4.970;2022-12-05T15:05:21;102107.78;;;6.58;100.00
54172;BME280;40076;52.354;4.970;2022-12-05T15:07:49;102115.84;;;6.58;100.00